sensor_id;sensor_type;location;lat;lon;timestamp;P1;durP1;ratioP1;P2;durP2;ratioP2
22754;SDS011;11544;42.020;23.094;2023-01-15T00:02:05;29.65;;;13.85;;
22754;SDS011;11544;42.020;23.094;2023-01-15T00:04:33;25.02;;;12.20;;
22754;SDS011;11544;42.020;23.094;2023-01-15T00:07:00;28.05;;;12.70;;
22754;SDS011;11544;42.020;23.094;2023-01-15T00:09:30;28.38;;;12.45;;
22754;SDS011;11544;42.020;23.094;2023-01-15T00:11:58;24.85;;;12.02;;
22754;SDS011;11544;42.020;23.094;2023-01-15T00:14:27;25.77;;;10.45;;
22754;SDS011;11544;42.020;23.094;2023-01-15T00:16:54;21.35;;;10.60;;
22754;SDS011;11544;42.020;23.094;2023-01-15T00:19:21;22.55;;;11.00;;
22754;SDS011;11544;42.020;23.094;2023-01-15T00:21:48;23.80;;;10.88;;
22754;SDS011;11544;42.020;23.094;2023-01-15T00:24:15;23.75;;;10.07;;
22754;SDS011;11544;42.020;23.094;2023-01-15T00:27:01;29.45;;;12.23;;
22754;SDS011;11544;42.020;23.094;2023-01-15T00:29:46;25.08;;;11.20;;
22754;SDS011;11544;42.020;23.094;2023-01-15T00:32:13;21.58;;;10.63;;
22754;SDS011;11544;42.020;23.094;2023-01-15T00:34:40;24.38;;;11.32;;
22754;SDS011;11544;42.020;23.094;2023-01-15T00:37:07;21.77;;;10.63;;
22754;SDS011;11544;42.020;23.094;2023-01-15T00:39:34;23.00;;;11.25;;
22754;SDS011;11544;42.020;23.094;2023-01-15T00:42:01;26.17;;;11.52;;
22754;SDS011;11544;42.020;23.094;2023-01-15T00:44:29;20.73;;;11.13;;
22754;SDS011;11544;42.020;23.094;2023-01-15T00:46:58;20.15;;;10.70;;
22754;SDS011;11544;42.020;23.094;2023-01-15T00:49:25;24.48;;;11.15;;
22754;SDS011;11544;42.020;23.094;2023-01-15T00:51:52;20.83;;;10.05;;
22754;SDS011;11544;42.020;23.094;2023-01-15T00:54:19;23.48;;;10.75;;
22754;SDS011;11544;42.020;23.094;2023-01-15T00:56:46;23.48;;;10.88;;
22754;SDS011;11544;42.020;23.094;2023-01-15T00:59:14;23.92;;;11.40;;
22754;SDS011;11544;42.020;23.094;2023-01-15T01:01:41;21.50;;;11.27;;
22754;SDS011;11544;42.020;23.094;2023-01-15T01:04:08;24.08;;;11.35;;
22754;SDS011;11544;42.020;23.094;2023-01-15T01:06:35;20.35;;;10.35;;
22754;SDS011;11544;42.020;23.094;2023-01-15T01:09:02;25.83;;;12.20;;
22754;SDS011;11544;42.020;23.094;2023-01-15T01:11:30;21.80;;;10.88;;
22754;SDS011;11544;42.020;23.094;2023-01-15T01:14:00;19.55;;;9.60;;
22754;SDS011;11544;42.020;23.094;2023-01-15T01:16:29;24.58;;;10.60;;
22754;SDS011;11544;42.020;23.094;2023-01-15T01:19:02;21.15;;;10.15;;
22754;SDS011;11544;42.020;23.094;2023-01-15T01:21:31;21.63;;;9.90;;
22754;SDS011;11544;42.020;23.094;2023-01-15T01:23:59;22.77;;;10.35;;
22754;SDS011;11544;42.020;23.094;2023-01-15T01:26:27;29.08;;;11.98;;
22754;SDS011;11544;42.020;23.094;2023-01-15T01:28:55;19.42;;;9.43;;
22754;SDS011;11544;42.020;23.094;2023-01-15T01:31:23;22.17;;;11.57;;
22754;SDS011;11544;42.020;23.094;2023-01-15T01:33:53;28.23;;;12.25;;
22754;SDS011;11544;42.020;23.094;2023-01-15T01:36:29;27.25;;;12.57;;
22754;SDS011;11544;42.020;23.094;2023-01-15T01:38:58;22.83;;;11.45;;
22754;SDS011;11544;42.020;23.094;2023-01-15T01:41:26;27.90;;;12.45;;
22754;SDS011;11544;42.020;23.094;2023-01-15T01:43:58;28.00;;;12.02;;
22754;SDS011;11544;42.020;23.094;2023-01-15T01:46:29;28.15;;;11.65;;
22754;SDS011;11544;42.020;23.094;2023-01-15T01:49:07;23.83;;;11.52;;
22754;SDS011;11544;42.020;23.094;2023-01-15T01:51:42;23.58;;;12.05;;
22754;SDS011;11544;42.020;23.094;2023-01-15T01:54:16;23.67;;;11.98;;
22754;SDS011;11544;42.020;23.094;2023-01-15T01:56:47;25.23;;;12.05;;
22754;SDS011;11544;42.020;23.094;2023-01-15T01:59:16;25.65;;;12.02;;
22754;SDS011;11544;42.020;23.094;2023-01-15T02:01:46;24.08;;;12.90;;
22754;SDS011;11544;42.020;23.094;2023-01-15T02:04:15;31.83;;;13.98;;
22754;SDS011;11544;42.020;23.094;2023-01-15T02:06:46;26.13;;;12.80;;
22754;SDS011;11544;42.020;23.094;2023-01-15T02:09:13;21.83;;;11.45;;
22754;SDS011;11544;42.020;23.094;2023-01-15T02:11:43;23.70;;;12.10;;
22754;SDS011;11544;42.020;23.094;2023-01-15T02:14:15;25.85;;;12.25;;
22754;SDS011;11544;42.020;23.094;2023-01-15T02:16:53;24.50;;;13.20;;
22754;SDS011;11544;42.020;23.094;2023-01-15T02:25:17;26.98;;;12.40;;
22754;SDS011;11544;42.020;23.094;2023-01-15T02:27:55;27.50;;;13.63;;
22754;SDS011;11544;42.020;23.094;2023-01-15T02:30:27;25.02;;;12.10;;
22754;SDS011;11544;42.020;23.094;2023-01-15T02:33:21;24.98;;;11.35;;
22754;SDS011;11544;42.020;23.094;2023-01-15T02:35:55;23.58;;;11.07;;
22754;SDS011;11544;42.020;23.094;2023-01-15T02:38:28;26.45;;;12.18;;
22754;SDS011;11544;42.020;23.094;2023-01-15T02:40:58;22.15;;;11.38;;
22754;SDS011;11544;42.020;23.094;2023-01-15T02:43:28;22.00;;;11.52;;
22754;SDS011;11544;42.020;23.094;2023-01-15T02:46:01;23.98;;;12.10;;
22754;SDS011;11544;42.020;23.094;2023-01-15T02:48:31;21.52;;;11.30;;
22754;SDS011;11544;42.020;23.094;2023-01-15T02:51:04;22.83;;;12.75;;
22754;SDS011;11544;42.020;23.094;2023-01-15T02:53:40;29.20;;;13.02;;
22754;SDS011;11544;42.020;23.094;2023-01-15T02:56:11;24.40;;;11.68;;
22754;SDS011;11544;42.020;23.094;2023-01-15T02:58:41;21.67;;;11.98;;
22754;SDS011;11544;42.020;23.094;2023-01-15T03:01:12;20.20;;;11.52;;
22754;SDS011;11544;42.020;23.094;2023-01-15T03:06:48;25.27;;;12.43;;
22754;SDS011;11544;42.020;23.094;2023-01-15T03:09:21;25.88;;;12.88;;
22754;SDS011;11544;42.020;23.094;2023-01-15T03:17:35;20.52;;;12.05;;
22754;SDS011;11544;42.020;23.094;2023-01-15T03:20:15;22.13;;;11.73;;
22754;SDS011;11544;42.020;23.094;2023-01-15T03:22:47;27.75;;;13.20;;
22754;SDS011;11544;42.020;23.094;2023-01-15T03:25:22;26.73;;;12.30;;
22754;SDS011;11544;42.020;23.094;2023-01-15T03:27:52;21.95;;;12.13;;
22754;SDS011;11544;42.020;23.094;2023-01-15T03:30:22;27.23;;;13.73;;
22754;SDS011;11544;42.020;23.094;2023-01-15T03:32:49;27.60;;;13.48;;
22754;SDS011;11544;42.020;23.094;2023-01-15T03:38:13;29.30;;;14.77;;
22754;SDS011;11544;42.020;23.094;2023-01-15T03:40:52;25.55;;;12.55;;
22754;SDS011;11544;42.020;23.094;2023-01-15T03:43:30;30.35;;;13.48;;
22754;SDS011;11544;42.020;23.094;2023-01-15T03:46:13;26.13;;;12.93;;
22754;SDS011;11544;42.020;23.094;2023-01-15T03:48:56;23.15;;;12.23;;
22754;SDS011;11544;42.020;23.094;2023-01-15T03:54:08;31.40;;;15.07;;
22754;SDS011;11544;42.020;23.094;2023-01-15T03:56:50;31.25;;;15.80;;
22754;SDS011;11544;42.020;23.094;2023-01-15T03:59:28;32.28;;;14.68;;
22754;SDS011;11544;42.020;23.094;2023-01-15T04:02:05;26.17;;;15.18;;
22754;SDS011;11544;42.020;23.094;2023-01-15T04:04:36;25.17;;;15.07;;
22754;SDS011;11544;42.020;23.094;2023-01-15T04:07:05;32.65;;;15.23;;
22754;SDS011;11544;42.020;23.094;2023-01-15T04:09:35;29.23;;;14.52;;
22754;SDS011;11544;42.020;23.094;2023-01-15T04:12:03;24.35;;;11.80;;
22754;SDS011;11544;42.020;23.094;2023-01-15T04:14:31;22.52;;;11.10;;
22754;SDS011;11544;42.020;23.094;2023-01-15T04:16:59;22.75;;;11.23;;
22754;SDS011;11544;42.020;23.094;2023-01-15T04:19:26;20.20;;;10.20;;
22754;SDS011;11544;42.020;23.094;2023-01-15T04:21:53;19.30;;;9.95;;
22754;SDS011;11544;42.020;23.094;2023-01-15T04:24:20;19.25;;;9.15;;
22754;SDS011;11544;42.020;23.094;2023-01-15T04:26:47;22.40;;;10.63;;
22754;SDS011;11544;42.020;23.094;2023-01-15T04:29:14;21.95;;;9.88;;
22754;SDS011;11544;42.020;23.094;2023-01-15T04:31:41;21.90;;;10.57;;
22754;SDS011;11544;42.020;23.094;2023-01-15T04:34:27;22.23;;;10.63;;
22754;SDS011;11544;42.020;23.094;2023-01-15T04:36:54;20.60;;;10.02;;
22754;SDS011;11544;42.020;23.094;2023-01-15T04:39:22;19.98;;;9.60;;
22754;SDS011;11544;42.020;23.094;2023-01-15T04:41:49;20.92;;;10.50;;
22754;SDS011;11544;42.020;23.094;2023-01-15T04:44:35;19.27;;;9.82;;
22754;SDS011;11544;42.020;23.094;2023-01-15T04:47:03;19.25;;;9.65;;
22754;SDS011;11544;42.020;23.094;2023-01-15T04:49:31;21.77;;;9.82;;
22754;SDS011;11544;42.020;23.094;2023-01-15T04:51:59;21.50;;;10.13;;
22754;SDS011;11544;42.020;23.094;2023-01-15T04:54:26;20.33;;;9.43;;
22754;SDS011;11544;42.020;23.094;2023-01-15T04:56:53;21.90;;;10.50;;
22754;SDS011;11544;42.020;23.094;2023-01-15T04:59:22;23.73;;;9.88;;
22754;SDS011;11544;42.020;23.094;2023-01-15T05:01:51;24.77;;;10.18;;
22754;SDS011;11544;42.020;23.094;2023-01-15T05:04:33;19.90;;;10.23;;
22754;SDS011;11544;42.020;23.094;2023-01-15T05:07:01;22.80;;;10.02;;
22754;SDS011;11544;42.020;23.094;2023-01-15T05:09:30;24.50;;;10.63;;
22754;SDS011;11544;42.020;23.094;2023-01-15T05:11:58;25.55;;;11.40;;
22754;SDS011;11544;42.020;23.094;2023-01-15T05:14:25;25.35;;;10.80;;
22754;SDS011;11544;42.020;23.094;2023-01-15T05:16:52;21.73;;;9.95;;
22754;SDS011;11544;42.020;23.094;2023-01-15T05:19:19;22.67;;;9.60;;
22754;SDS011;11544;42.020;23.094;2023-01-15T05:21:46;21.42;;;10.35;;
22754;SDS011;11544;42.020;23.094;2023-01-15T05:24:14;20.50;;;10.15;;
22754;SDS011;11544;42.020;23.094;2023-01-15T05:26:42;19.90;;;10.05;;
22754;SDS011;11544;42.020;23.094;2023-01-15T05:29:09;28.27;;;13.07;;
22754;SDS011;11544;42.020;23.094;2023-01-15T05:31:39;28.33;;;12.38;;
22754;SDS011;11544;42.020;23.094;2023-01-15T05:34:08;28.27;;;12.40;;
22754;SDS011;11544;42.020;23.094;2023-01-15T05:36:36;25.77;;;11.90;;
22754;SDS011;11544;42.020;23.094;2023-01-15T05:39:03;25.58;;;11.60;;
22754;SDS011;11544;42.020;23.094;2023-01-15T05:41:30;26.52;;;11.52;;
22754;SDS011;11544;42.020;23.094;2023-01-15T05:46:48;21.05;;;10.48;;
22754;SDS011;11544;42.020;23.094;2023-01-15T05:49:19;27.38;;;11.50;;
22754;SDS011;11544;42.020;23.094;2023-01-15T05:51:48;23.00;;;10.93;;
22754;SDS011;11544;42.020;23.094;2023-01-15T05:54:17;21.27;;;9.77;;
22754;SDS011;11544;42.020;23.094;2023-01-15T05:56:47;23.70;;;10.82;;
22754;SDS011;11544;42.020;23.094;2023-01-15T05:59:15;21.73;;;9.50;;
22754;SDS011;11544;42.020;23.094;2023-01-15T06:01:45;25.02;;;9.65;;
22754;SDS011;11544;42.020;23.094;2023-01-15T06:04:13;23.33;;;9.80;;
22754;SDS011;11544;42.020;23.094;2023-01-15T06:06:41;25.80;;;11.18;;
22754;SDS011;11544;42.020;23.094;2023-01-15T06:09:08;22.02;;;10.98;;
22754;SDS011;11544;42.020;23.094;2023-01-15T06:11:36;26.70;;;11.32;;
22754;SDS011;11544;42.020;23.094;2023-01-15T06:14:03;25.42;;;11.32;;
22754;SDS011;11544;42.020;23.094;2023-01-15T06:16:34;20.45;;;10.35;;
22754;SDS011;11544;42.020;23.094;2023-01-15T06:19:02;20.08;;;9.63;;
22754;SDS011;11544;42.020;23.094;2023-01-15T06:21:54;22.98;;;10.70;;
22754;SDS011;11544;42.020;23.094;2023-01-15T06:24:22;28.48;;;9.75;;
22754;SDS011;11544;42.020;23.094;2023-01-15T06:27:03;19.83;;;9.68;;
22754;SDS011;11544;42.020;23.094;2023-01-15T06:29:30;22.73;;;11.10;;
22754;SDS011;11544;42.020;23.094;2023-01-15T06:31:57;21.67;;;11.18;;
22754;SDS011;11544;42.020;23.094;2023-01-15T06:34:24;22.73;;;11.07;;
22754;SDS011;11544;42.020;23.094;2023-01-15T06:36:51;22.90;;;11.07;;
22754;SDS011;11544;42.020;23.094;2023-01-15T06:39:18;25.33;;;10.82;;
22754;SDS011;11544;42.020;23.094;2023-01-15T06:41:44;24.85;;;11.63;;
22754;SDS011;11544;42.020;23.094;2023-01-15T06:44:30;25.70;;;12.00;;
22754;SDS011;11544;42.020;23.094;2023-01-15T06:47:18;25.17;;;10.75;;
22754;SDS011;11544;42.020;23.094;2023-01-15T06:49:56;23.15;;;10.23;;
22754;SDS011;11544;42.020;23.094;2023-01-15T06:52:24;23.15;;;10.30;;
22754;SDS011;11544;42.020;23.094;2023-01-15T06:54:53;20.80;;;9.48;;
22754;SDS011;11544;42.020;23.094;2023-01-15T06:57:19;24.30;;;10.55;;
22754;SDS011;11544;42.020;23.094;2023-01-15T06:59:47;19.27;;;9.65;;
22754;SDS011;11544;42.020;23.094;2023-01-15T07:02:17;21.52;;;10.32;;
22754;SDS011;11544;42.020;23.094;2023-01-15T07:04:45;27.95;;;11.73;;
22754;SDS011;11544;42.020;23.094;2023-01-15T07:07:16;22.70;;;9.82;;
22754;SDS011;11544;42.020;23.094;2023-01-15T07:09:45;23.25;;;10.98;;
22754;SDS011;11544;42.020;23.094;2023-01-15T07:12:12;18.50;;;8.23;;
22754;SDS011;11544;42.020;23.094;2023-01-15T07:14:39;21.70;;;9.70;;
22754;SDS011;11544;42.020;23.094;2023-01-15T07:17:06;18.30;;;8.18;;
22754;SDS011;11544;42.020;23.094;2023-01-15T07:19:34;23.80;;;11.32;;
22754;SDS011;11544;42.020;23.094;2023-01-15T07:22:01;24.23;;;11.55;;
22754;SDS011;11544;42.020;23.094;2023-01-15T07:24:28;50.25;;;20.33;;
22754;SDS011;11544;42.020;23.094;2023-01-15T07:26:55;46.78;;;19.40;;
22754;SDS011;11544;42.020;23.094;2023-01-15T07:29:28;40.58;;;19.05;;
22754;SDS011;11544;42.020;23.094;2023-01-15T07:31:56;38.22;;;19.55;;
22754;SDS011;11544;42.020;23.094;2023-01-15T07:34:23;40.30;;;18.83;;
22754;SDS011;11544;42.020;23.094;2023-01-15T07:36:50;40.13;;;18.55;;
22754;SDS011;11544;42.020;23.094;2023-01-15T07:39:17;35.95;;;17.70;;
22754;SDS011;11544;42.020;23.094;2023-01-15T07:41:44;37.42;;;16.95;;
22754;SDS011;11544;42.020;23.094;2023-01-15T07:44:30;31.73;;;16.73;;
22754;SDS011;11544;42.020;23.094;2023-01-15T07:47:22;32.70;;;17.02;;
22754;SDS011;11544;42.020;23.094;2023-01-15T07:50:11;31.02;;;16.85;;
22754;SDS011;11544;42.020;23.094;2023-01-15T07:52:41;38.15;;;18.27;;
22754;SDS011;11544;42.020;23.094;2023-01-15T07:55:08;33.97;;;16.25;;
22754;SDS011;11544;42.020;23.094;2023-01-15T07:57:38;40.72;;;18.27;;
22754;SDS011;11544;42.020;23.094;2023-01-15T08:00:07;31.73;;;17.70;;
22754;SDS011;11544;42.020;23.094;2023-01-15T08:02:36;37.13;;;16.55;;
22754;SDS011;11544;42.020;23.094;2023-01-15T08:05:04;33.80;;;16.10;;
22754;SDS011;11544;42.020;23.094;2023-01-15T08:08:00;39.33;;;17.80;;
22754;SDS011;11544;42.020;23.094;2023-01-15T08:10:24;38.05;;;17.48;;
22754;SDS011;11544;42.020;23.094;2023-01-15T08:12:54;34.15;;;17.13;;
22754;SDS011;11544;42.020;23.094;2023-01-15T08:15:44;38.80;;;17.83;;
22754;SDS011;11544;42.020;23.094;2023-01-15T08:18:11;37.20;;;18.75;;
22754;SDS011;11544;42.020;23.094;2023-01-15T08:20:41;37.05;;;18.77;;
22754;SDS011;11544;42.020;23.094;2023-01-15T08:23:12;32.65;;;18.27;;
22754;SDS011;11544;42.020;23.094;2023-01-15T08:25:39;40.80;;;20.33;;
22754;SDS011;11544;42.020;23.094;2023-01-15T08:28:06;38.10;;;19.95;;
22754;SDS011;11544;42.020;23.094;2023-01-15T08:30:36;55.88;;;25.88;;
22754;SDS011;11544;42.020;23.094;2023-01-15T08:33:06;48.13;;;22.73;;
22754;SDS011;11544;42.020;23.094;2023-01-15T08:35:51;39.35;;;18.77;;
22754;SDS011;11544;42.020;23.094;2023-01-15T08:38:17;23.05;;;11.60;;
22754;SDS011;11544;42.020;23.094;2023-01-15T08:40:44;24.70;;;12.18;;
22754;SDS011;11544;42.020;23.094;2023-01-15T08:43:30;33.58;;;17.02;;
22754;SDS011;11544;42.020;23.094;2023-01-15T08:45:59;28.60;;;14.57;;
22754;SDS011;11544;42.020;23.094;2023-01-15T08:48:34;25.73;;;13.18;;
22754;SDS011;11544;42.020;23.094;2023-01-15T08:51:05;26.23;;;13.73;;
22754;SDS011;11544;42.020;23.094;2023-01-15T08:53:34;25.92;;;13.38;;
22754;SDS011;11544;42.020;23.094;2023-01-15T08:56:02;31.27;;;14.55;;
22754;SDS011;11544;42.020;23.094;2023-01-15T08:58:32;32.03;;;14.23;;
22754;SDS011;11544;42.020;23.094;2023-01-15T09:01:03;28.58;;;15.35;;
22754;SDS011;11544;42.020;23.094;2023-01-15T09:03:32;31.40;;;15.70;;
22754;SDS011;11544;42.020;23.094;2023-01-15T09:06:00;31.05;;;15.38;;
22754;SDS011;11544;42.020;23.094;2023-01-15T09:08:28;34.00;;;16.00;;
22754;SDS011;11544;42.020;23.094;2023-01-15T09:10:58;36.15;;;17.63;;
22754;SDS011;11544;42.020;23.094;2023-01-15T09:13:27;37.60;;;17.70;;
22754;SDS011;11544;42.020;23.094;2023-01-15T09:16:01;38.25;;;18.10;;
22754;SDS011;11544;42.020;23.094;2023-01-15T09:18:29;35.88;;;17.08;;
22754;SDS011;11544;42.020;23.094;2023-01-15T09:20:56;31.15;;;15.05;;
22754;SDS011;11544;42.020;23.094;2023-01-15T09:23:23;23.73;;;14.10;;
22754;SDS011;11544;42.020;23.094;2023-01-15T09:26:00;23.30;;;12.25;;
22754;SDS011;11544;42.020;23.094;2023-01-15T09:28:34;32.75;;;15.40;;
22754;SDS011;11544;42.020;23.094;2023-01-15T09:31:04;27.48;;;13.63;;
22754;SDS011;11544;42.020;23.094;2023-01-15T09:33:31;32.30;;;15.23;;
22754;SDS011;11544;42.020;23.094;2023-01-15T09:35:58;31.40;;;16.05;;
22754;SDS011;11544;42.020;23.094;2023-01-15T09:38:25;30.50;;;14.80;;
22754;SDS011;11544;42.020;23.094;2023-01-15T09:40:53;30.40;;;15.52;;
22754;SDS011;11544;42.020;23.094;2023-01-15T09:46:19;28.48;;;14.05;;
22754;SDS011;11544;42.020;23.094;2023-01-15T09:56:58;16.55;;;9.93;;
22754;SDS011;11544;42.020;23.094;2023-01-15T09:59:31;18.98;;;9.40;;
22754;SDS011;11544;42.020;23.094;2023-01-15T10:02:02;15.85;;;8.45;;
22754;SDS011;11544;42.020;23.094;2023-01-15T10:04:42;17.83;;;8.20;;
22754;SDS011;11544;42.020;23.094;2023-01-15T10:09:55;15.90;;;8.00;;
22754;SDS011;11544;42.020;23.094;2023-01-15T10:12:29;21.02;;;9.00;;
22754;SDS011;11544;42.020;23.094;2023-01-15T10:17:38;11.48;;;6.80;;
22754;SDS011;11544;42.020;23.094;2023-01-15T10:20:22;12.73;;;7.40;;
22754;SDS011;11544;42.020;23.094;2023-01-15T10:29:01;22.73;;;12.25;;
22754;SDS011;11544;42.020;23.094;2023-01-15T10:31:50;25.77;;;13.00;;
22754;SDS011;11544;42.020;23.094;2023-01-15T10:37:00;11.73;;;6.63;;
22754;SDS011;11544;42.020;23.094;2023-01-15T10:39:40;28.65;;;12.25;;
22754;SDS011;11544;42.020;23.094;2023-01-15T10:45:12;14.48;;;7.75;;
22754;SDS011;11544;42.020;23.094;2023-01-15T10:47:47;10.88;;;6.25;;
22754;SDS011;11544;42.020;23.094;2023-01-15T10:50:24;11.85;;;6.93;;
22754;SDS011;11544;42.020;23.094;2023-01-15T10:52:59;16.90;;;8.65;;
22754;SDS011;11544;42.020;23.094;2023-01-15T10:55:45;10.85;;;6.05;;
22754;SDS011;11544;42.020;23.094;2023-01-15T11:01:08;10.13;;;5.75;;
22754;SDS011;11544;42.020;23.094;2023-01-15T11:03:42;11.02;;;6.53;;
22754;SDS011;11544;42.020;23.094;2023-01-15T11:06:14;11.38;;;6.38;;
22754;SDS011;11544;42.020;23.094;2023-01-15T11:08:52;10.35;;;5.90;;
22754;SDS011;11544;42.020;23.094;2023-01-15T11:11:48;11.32;;;6.35;;
22754;SDS011;11544;42.020;23.094;2023-01-15T11:14:58;9.57;;;5.60;;
22754;SDS011;11544;42.020;23.094;2023-01-15T11:17:42;12.68;;;6.78;;
22754;SDS011;11544;42.020;23.094;2023-01-15T11:20:31;13.63;;;6.40;;
22754;SDS011;11544;42.020;23.094;2023-01-15T11:23:10;11.55;;;7.00;;
22754;SDS011;11544;42.020;23.094;2023-01-15T11:25:46;10.52;;;6.47;;
22754;SDS011;11544;42.020;23.094;2023-01-15T11:28:16;13.95;;;7.10;;
22754;SDS011;11544;42.020;23.094;2023-01-15T11:30:52;13.23;;;6.95;;
22754;SDS011;11544;42.020;23.094;2023-01-15T11:33:25;11.90;;;6.80;;
22754;SDS011;11544;42.020;23.094;2023-01-15T11:35:56;10.05;;;5.97;;
22754;SDS011;11544;42.020;23.094;2023-01-15T11:38:26;14.48;;;7.63;;
22754;SDS011;11544;42.020;23.094;2023-01-15T11:40:58;12.98;;;7.47;;
22754;SDS011;11544;42.020;23.094;2023-01-15T11:43:27;13.20;;;7.43;;
22754;SDS011;11544;42.020;23.094;2023-01-15T11:46:29;12.55;;;6.32;;
22754;SDS011;11544;42.020;23.094;2023-01-15T11:49:23;12.13;;;6.65;;
22754;SDS011;11544;42.020;23.094;2023-01-15T11:52:15;12.85;;;7.00;;
22754;SDS011;11544;42.020;23.094;2023-01-15T11:54:45;13.98;;;8.32;;
22754;SDS011;11544;42.020;23.094;2023-01-15T11:57:27;12.43;;;7.15;;
22754;SDS011;11544;42.020;23.094;2023-01-15T11:59:56;13.57;;;7.90;;
22754;SDS011;11544;42.020;23.094;2023-01-15T12:02:30;12.40;;;7.68;;
22754;SDS011;11544;42.020;23.094;2023-01-15T12:05:01;14.52;;;7.43;;
22754;SDS011;11544;42.020;23.094;2023-01-15T12:07:36;15.07;;;7.32;;
22754;SDS011;11544;42.020;23.094;2023-01-15T12:10:44;11.55;;;6.90;;
22754;SDS011;11544;42.020;23.094;2023-01-15T12:32:27;9.25;;;6.20;;
22754;SDS011;11544;42.020;23.094;2023-01-15T12:38:21;10.38;;;5.93;;
22754;SDS011;11544;42.020;23.094;2023-01-15T12:41:33;8.45;;;5.65;;
22754;SDS011;11544;42.020;23.094;2023-01-15T13:33:34;7.35;;;4.70;;
22754;SDS011;11544;42.020;23.094;2023-01-15T15:30:41;40.78;;;19.67;;
22754;SDS011;11544;42.020;23.094;2023-01-15T15:33:16;40.65;;;19.40;;
22754;SDS011;11544;42.020;23.094;2023-01-15T15:35:50;40.40;;;21.02;;
22754;SDS011;11544;42.020;23.094;2023-01-15T15:38:21;15.55;;;8.70;;
22754;SDS011;11544;42.020;23.094;2023-01-15T15:40:50;26.83;;;13.10;;
22754;SDS011;11544;42.020;23.094;2023-01-15T15:43:26;24.65;;;12.07;;
22754;SDS011;11544;42.020;23.094;2023-01-15T15:46:32;24.35;;;11.02;;
22754;SDS011;11544;42.020;23.094;2023-01-15T15:49:17;26.50;;;14.82;;
22754;SDS011;11544;42.020;23.094;2023-01-15T15:51:52;29.33;;;16.30;;
22754;SDS011;11544;42.020;23.094;2023-01-15T15:54:23;33.95;;;16.13;;
22754;SDS011;11544;42.020;23.094;2023-01-15T15:59:42;34.35;;;18.85;;
22754;SDS011;11544;42.020;23.094;2023-01-15T16:07:46;23.80;;;10.90;;
22754;SDS011;11544;42.020;23.094;2023-01-15T16:12:58;20.42;;;11.43;;
22754;SDS011;11544;42.020;23.094;2023-01-15T16:15:33;23.90;;;12.60;;
22754;SDS011;11544;42.020;23.094;2023-01-15T16:18:04;18.23;;;9.85;;
22754;SDS011;11544;42.020;23.094;2023-01-15T16:20:35;20.33;;;10.48;;
22754;SDS011;11544;42.020;23.094;2023-01-15T16:23:04;25.67;;;12.13;;
22754;SDS011;11544;42.020;23.094;2023-01-15T16:25:32;44.67;;;19.73;;
22754;SDS011;11544;42.020;23.094;2023-01-15T16:28:02;31.73;;;16.77;;
22754;SDS011;11544;42.020;23.094;2023-01-15T16:30:31;39.67;;;17.35;;
22754;SDS011;11544;42.020;23.094;2023-01-15T16:33:00;25.63;;;11.90;;
22754;SDS011;11544;42.020;23.094;2023-01-15T16:35:31;32.85;;;16.25;;
22754;SDS011;11544;42.020;23.094;2023-01-15T16:38:02;34.08;;;17.60;;
22754;SDS011;11544;42.020;23.094;2023-01-15T16:40:32;28.65;;;14.13;;
22754;SDS011;11544;42.020;23.094;2023-01-15T16:45:36;32.33;;;14.77;;
22754;SDS011;11544;42.020;23.094;2023-01-15T16:48:26;23.38;;;13.60;;
22754;SDS011;11544;42.020;23.094;2023-01-15T16:50:58;33.17;;;19.88;;
22754;SDS011;11544;42.020;23.094;2023-01-15T16:53:49;25.58;;;14.93;;
22754;SDS011;11544;42.020;23.094;2023-01-15T16:59:04;26.20;;;14.38;;
22754;SDS011;11544;42.020;23.094;2023-01-15T17:01:45;35.22;;;17.67;;
22754;SDS011;11544;42.020;23.094;2023-01-15T17:04:33;23.77;;;12.40;;
22754;SDS011;11544;42.020;23.094;2023-01-15T17:09:34;37.50;;;19.45;;
22754;SDS011;11544;42.020;23.094;2023-01-15T17:12:05;33.38;;;16.70;;
22754;SDS011;11544;42.020;23.094;2023-01-15T17:14:44;33.58;;;15.80;;
22754;SDS011;11544;42.020;23.094;2023-01-15T17:17:24;32.25;;;17.88;;
22754;SDS011;11544;42.020;23.094;2023-01-15T17:19:54;30.02;;;16.88;;
22754;SDS011;11544;42.020;23.094;2023-01-15T17:24:58;34.97;;;17.52;;
22754;SDS011;11544;42.020;23.094;2023-01-15T17:27:28;37.25;;;16.95;;
22754;SDS011;11544;42.020;23.094;2023-01-15T17:29:55;35.95;;;18.30;;
22754;SDS011;11544;42.020;23.094;2023-01-15T17:32:29;36.75;;;19.05;;
22754;SDS011;11544;42.020;23.094;2023-01-15T17:34:59;41.38;;;20.13;;
22754;SDS011;11544;42.020;23.094;2023-01-15T17:37:26;30.10;;;16.88;;
22754;SDS011;11544;42.020;23.094;2023-01-15T17:39:52;34.95;;;18.88;;
22754;SDS011;11544;42.020;23.094;2023-01-15T17:42:19;37.60;;;18.30;;
22754;SDS011;11544;42.020;23.094;2023-01-15T17:44:46;31.17;;;16.23;;
22754;SDS011;11544;42.020;23.094;2023-01-15T17:47:13;37.38;;;20.08;;
22754;SDS011;11544;42.020;23.094;2023-01-15T17:49:41;41.63;;;22.00;;
22754;SDS011;11544;42.020;23.094;2023-01-15T17:52:12;40.53;;;25.35;;
22754;SDS011;11544;42.020;23.094;2023-01-15T17:54:44;23.95;;;12.25;;
22754;SDS011;11544;42.020;23.094;2023-01-15T17:57:29;31.50;;;16.60;;
22754;SDS011;11544;42.020;23.094;2023-01-15T18:00:15;46.40;;;22.02;;
22754;SDS011;11544;42.020;23.094;2023-01-15T18:03:01;57.92;;;25.88;;
22754;SDS011;11544;42.020;23.094;2023-01-15T18:05:47;55.22;;;29.60;;
22754;SDS011;11544;42.020;23.094;2023-01-15T18:08:18;42.20;;;22.25;;
22754;SDS011;11544;42.020;23.094;2023-01-15T18:10:45;24.65;;;12.10;;
22754;SDS011;11544;42.020;23.094;2023-01-15T18:13:12;24.17;;;10.93;;
22754;SDS011;11544;42.020;23.094;2023-01-15T18:15:39;20.08;;;10.88;;
22754;SDS011;11544;42.020;23.094;2023-01-15T18:18:06;20.88;;;9.55;;
22754;SDS011;11544;42.020;23.094;2023-01-15T18:20:34;16.10;;;8.50;;
22754;SDS011;11544;42.020;23.094;2023-01-15T18:23:01;14.02;;;8.45;;
22754;SDS011;11544;42.020;23.094;2023-01-15T18:25:33;19.33;;;10.35;;
22754;SDS011;11544;42.020;23.094;2023-01-15T18:28:01;15.18;;;8.32;;
22754;SDS011;11544;42.020;23.094;2023-01-15T18:30:28;15.90;;;9.43;;
22754;SDS011;11544;42.020;23.094;2023-01-15T18:32:55;17.73;;;8.95;;
22754;SDS011;11544;42.020;23.094;2023-01-15T18:35:22;16.08;;;8.95;;
22754;SDS011;11544;42.020;23.094;2023-01-15T18:37:49;23.92;;;9.60;;
22754;SDS011;11544;42.020;23.094;2023-01-15T18:40:17;17.00;;;9.48;;
22754;SDS011;11544;42.020;23.094;2023-01-15T18:42:44;18.67;;;10.18;;
22754;SDS011;11544;42.020;23.094;2023-01-15T18:45:29;15.52;;;9.45;;
22754;SDS011;11544;42.020;23.094;2023-01-15T18:48:15;18.52;;;10.23;;
22754;SDS011;11544;42.020;23.094;2023-01-15T18:50:42;20.70;;;10.70;;
22754;SDS011;11544;42.020;23.094;2023-01-15T18:53:08;20.70;;;10.43;;
22754;SDS011;11544;42.020;23.094;2023-01-15T18:55:38;23.08;;;10.32;;
22754;SDS011;11544;42.020;23.094;2023-01-15T18:58:04;18.08;;;9.90;;
22754;SDS011;11544;42.020;23.094;2023-01-15T19:00:31;18.55;;;9.55;;
22754;SDS011;11544;42.020;23.094;2023-01-15T19:02:58;17.05;;;8.93;;